createdAt,value
2023-02-12T00:01:26.668Z,2.80
2023-02-12T00:03:53.638Z,2.74
2023-02-12T00:06:20.710Z,2.42
2023-02-12T00:08:51.375Z,2.77
2023-02-12T00:11:22.499Z,2.65
2023-02-12T00:13:59.618Z,1.99
2023-02-12T00:16:31.804Z,2.54
2023-02-12T00:18:59.458Z,2.38
2023-02-12T00:21:26.840Z,2.48
2023-02-12T00:23:59.079Z,2.59
2023-02-12T00:26:32.014Z,2.68
2023-02-12T00:29:03.749Z,2.70
2023-02-12T00:34:44.898Z,2.65
2023-02-12T00:37:14.887Z,2.62
2023-02-12T00:39:46.824Z,2.32
2023-02-12T00:42:16.166Z,2.64
2023-02-12T00:44:42.873Z,2.48
2023-02-12T00:47:09.936Z,2.28
2023-02-12T00:49:37.215Z,2.40
2023-02-12T00:52:21.659Z,2.48
2023-02-12T00:55:17.133Z,2.85
2023-02-12T00:58:24.647Z,2.38
2023-02-12T01:04:35.012Z,2.81
2023-02-12T01:07:12.544Z,2.56
2023-02-12T01:09:41.010Z,2.45
2023-02-12T01:12:08.257Z,2.40
2023-02-12T01:15:06.852Z,2.73
2023-02-12T01:18:00.256Z,2.58
2023-02-12T01:20:46.346Z,2.49
2023-02-12T01:23:16.128Z,2.45
2023-02-12T01:25:53.954Z,2.50
2023-02-12T01:36:22.228Z,2.61
2023-02-12T01:43:48.954Z,2.65
2023-02-12T01:49:44.140Z,2.32
2023-02-12T01:52:14.737Z,2.60
2023-02-12T01:54:42.179Z,1.85
2023-02-12T01:57:11.106Z,2.58
2023-02-12T01:59:39.053Z,2.42
2023-02-12T02:02:06.238Z,2.69
2023-02-12T02:04:41.952Z,2.39
2023-02-12T02:07:11.173Z,2.24
2023-02-12T02:15:14.782Z,2.50
2023-02-12T02:18:02.493Z,2.82
2023-02-12T02:20:41.420Z,2.77
2023-02-12T02:23:21.782Z,2.64
2023-02-12T02:26:21.175Z,2.95
2023-02-12T02:28:52.516Z,2.88
2023-02-12T02:31:26.923Z,2.92
2023-02-12T02:34:05.571Z,2.99
2023-02-12T02:36:58.323Z,3.08
2023-02-12T02:39:37.112Z,2.36
2023-02-12T02:42:43.935Z,2.91
2023-02-12T02:45:18.796Z,3.11
2023-02-12T02:47:51.594Z,2.93
2023-02-12T02:50:23.201Z,2.43
2023-02-12T02:52:55.974Z,1.92
2023-02-12T02:55:27.069Z,2.98
2023-02-12T02:57:53.767Z,2.99
2023-02-12T03:00:31.670Z,2.92
2023-02-12T03:03:05.736Z,2.38
2023-02-12T03:05:38.367Z,3.07
2023-02-12T03:08:10.837Z,2.25
2023-02-12T03:10:51.956Z,2.68
2023-02-12T03:13:28.251Z,3.13
2023-02-12T03:16:25.686Z,3.13
2023-02-12T03:18:58.596Z,2.77
2023-02-12T03:21:32.574Z,3.09
2023-02-12T03:24:15.188Z,2.45
2023-02-12T03:27:05.157Z,2.59
2023-02-12T03:29:32.704Z,3.07
2023-02-12T03:32:18.229Z,3.10
2023-02-12T03:34:51.199Z,3.14
2023-02-12T03:37:33.238Z,2.74
2023-02-12T03:40:18.738Z,3.21
2023-02-12T03:42:56.159Z,3.21
2023-02-12T03:45:37.339Z,3.17
2023-02-12T03:48:29.179Z,2.80
2023-02-12T03:51:23.271Z,2.88
2023-02-12T03:53:50.110Z,2.52
2023-02-12T03:56:32.920Z,2.57
2023-02-12T03:59:00.443Z,2.76
2023-02-12T04:01:28.448Z,2.56
2023-02-12T04:03:56.093Z,3.22
2023-02-12T04:06:25.108Z,3.23
2023-02-12T04:08:52.754Z,3.01
2023-02-12T04:11:31.271Z,3.26
2023-02-12T04:14:41.407Z,3.22
2023-02-12T04:17:14.384Z,3.14
2023-02-12T04:19:54.846Z,3.05
2023-02-12T04:22:47.828Z,2.42
2023-02-12T04:25:51.600Z,3.17
2023-02-12T04:28:57.838Z,3.20
2023-02-12T04:31:30.725Z,3.21
2023-02-12T04:34:34.656Z,3.24
2023-02-12T04:37:14.122Z,2.78
2023-02-12T04:39:42.209Z,2.83
2023-02-12T04:42:09.246Z,2.84
2023-02-12T04:44:40.031Z,3.25
2023-02-12T04:47:07.353Z,2.18
2023-02-12T04:49:34.751Z,2.90
2023-02-12T04:52:01.499Z,3.14
2023-02-12T04:54:28.220Z,2.60
2023-02-12T04:56:54.975Z,1.34
2023-02-12T04:59:21.631Z,1.27
2023-02-12T05:01:48.669Z,2.77
2023-02-12T05:04:16.698Z,2.53
2023-02-12T05:06:44.701Z,2.61
2023-02-12T05:09:17.741Z,2.89
2023-02-12T05:11:45.310Z,3.14
2023-02-12T05:14:11.989Z,2.44
2023-02-12T05:16:38.800Z,3.18
2023-02-12T05:19:05.880Z,2.45
2023-02-12T05:21:32.638Z,2.80
2023-02-12T05:24:01.724Z,3.23
2023-02-12T05:26:28.633Z,1.68
2023-02-12T05:28:55.240Z,2.25
2023-02-12T05:31:22.067Z,2.83
2023-02-12T05:33:50.068Z,2.84
2023-02-12T05:36:20.058Z,2.44
2023-02-12T05:38:46.854Z,3.16
2023-02-12T05:41:16.259Z,2.95
2023-02-12T05:43:44.122Z,3.17
2023-02-12T05:46:12.218Z,2.98
2023-02-12T05:48:39.697Z,2.36
2023-02-12T05:51:31.913Z,2.71
2023-02-12T05:54:23.413Z,2.68
2023-02-12T05:56:50.212Z,2.80
2023-02-12T05:59:22.872Z,3.13
2023-02-12T06:01:51.727Z,3.15
2023-02-12T06:04:24.731Z,2.28
2023-02-12T06:06:56.099Z,1.96
2023-02-12T06:09:23.474Z,3.03
2023-02-12T06:11:50.125Z,2.58
2023-02-12T06:14:18.921Z,3.01
2023-02-12T06:16:50.303Z,3.00
2023-02-12T06:19:18.004Z,3.11
2023-02-12T06:21:45.126Z,3.18
2023-02-12T06:24:16.565Z,2.81
2023-02-12T06:26:44.008Z,2.84
2023-02-12T06:29:11.126Z,2.94
2023-02-12T06:31:38.217Z,2.36
2023-02-12T06:34:08.068Z,2.56
2023-02-12T06:36:37.527Z,3.29
2023-02-12T06:39:04.856Z,2.81
2023-02-12T06:41:31.566Z,2.77
2023-02-12T06:43:58.492Z,3.35
2023-02-12T06:46:25.990Z,3.06
2023-02-12T06:48:56.975Z,2.74
2023-02-12T06:51:24.250Z,2.71
2023-02-12T06:53:52.649Z,2.96
2023-02-12T06:56:22.280Z,3.12
2023-02-12T06:58:54.109Z,2.76
2023-02-12T07:01:23.770Z,3.20
2023-02-12T07:03:56.477Z,3.39
2023-02-12T07:06:24.808Z,3.12
2023-02-12T07:08:51.464Z,3.08
2023-02-12T07:11:19.000Z,3.35
2023-02-12T07:13:45.904Z,2.94
2023-02-12T07:16:15.284Z,2.93
2023-02-12T07:18:43.366Z,2.82
2023-02-12T07:21:11.912Z,2.90
2023-02-12T07:23:40.535Z,3.41
2023-02-12T07:26:11.571Z,3.39
2023-02-12T07:28:39.409Z,3.03
2023-02-12T07:31:08.679Z,3.06
2023-02-12T07:33:36.724Z,3.14
2023-02-12T07:36:09.297Z,2.99
2023-02-12T07:38:36.722Z,2.97
2023-02-12T07:41:28.104Z,3.44
2023-02-12T07:43:57.173Z,2.30
2023-02-12T07:46:30.293Z,3.41
2023-02-12T07:48:59.462Z,3.31
2023-02-12T07:51:27.470Z,3.38
2023-02-12T07:53:55.193Z,3.38
2023-02-12T07:56:25.405Z,3.44
2023-02-12T07:58:53.633Z,3.27
2023-02-12T08:01:22.498Z,2.83
2023-02-12T08:03:51.064Z,3.14
2023-02-12T08:06:23.005Z,3.49
2023-02-12T08:08:59.268Z,3.19
2023-02-12T08:11:27.794Z,1.91
2023-02-12T08:13:54.711Z,3.06
2023-02-12T08:16:25.207Z,3.52
2023-02-12T08:18:52.268Z,3.09
2023-02-12T08:21:21.798Z,3.64
2023-02-12T08:23:48.896Z,3.70
2023-02-12T08:26:23.836Z,3.69
2023-02-12T08:29:27.650Z,3.71
2023-02-12T08:32:01.795Z,3.49
2023-02-12T08:34:31.436Z,3.71
2023-02-12T08:37:01.830Z,3.29
2023-02-12T08:39:31.468Z,3.76
2023-02-12T08:42:00.277Z,3.42
2023-02-12T08:44:27.355Z,3.86
2023-02-12T08:46:54.531Z,3.93
2023-02-12T08:49:24.323Z,3.72
2023-02-12T08:51:53.698Z,4.01
2023-02-12T08:54:25.078Z,3.57
2023-02-12T08:56:59.360Z,3.87
2023-02-12T08:59:26.745Z,4.08
2023-02-12T09:01:55.067Z,2.54
2023-02-12T09:04:24.648Z,4.02
2023-02-12T09:06:52.985Z,4.07
2023-02-12T09:09:20.497Z,3.96
2023-02-12T09:11:48.639Z,4.19
2023-02-12T09:14:17.262Z,4.17
2023-02-12T09:16:44.419Z,3.76
2023-02-12T09:19:14.196Z,4.11
2023-02-12T09:21:41.565Z,4.14
2023-02-12T09:24:09.279Z,3.63
2023-02-12T09:26:36.366Z,4.20
2023-02-12T09:29:04.454Z,4.17
2023-02-12T09:31:32.460Z,4.00
2023-02-12T09:34:02.320Z,4.23
2023-02-12T09:36:29.761Z,3.78
2023-02-12T09:38:57.014Z,3.64
2023-02-12T09:41:46.922Z,4.19
2023-02-12T09:44:25.728Z,4.12
2023-02-12T09:47:05.933Z,4.23
2023-02-12T09:50:17.508Z,4.16
2023-02-12T09:52:44.514Z,3.62
2023-02-12T09:55:19.465Z,4.39
2023-02-12T09:57:46.581Z,3.75
2023-02-12T10:00:25.106Z,4.51
2023-02-12T10:02:54.457Z,4.58
2023-02-12T10:05:26.856Z,4.28
2023-02-12T10:08:25.029Z,4.77
2023-02-12T10:11:01.807Z,4.39
2023-02-12T10:13:41.943Z,4.78
2023-02-12T10:16:25.115Z,4.60
2023-02-12T10:19:04.485Z,4.54
2023-02-12T10:22:08.913Z,4.65
2023-02-12T10:25:06.746Z,4.68
2023-02-12T10:27:45.134Z,4.77
2023-02-12T10:30:44.763Z,4.76
2023-02-12T10:33:24.755Z,4.57
2023-02-12T10:35:58.985Z,3.56
2023-02-12T10:38:31.407Z,4.58
2023-02-12T10:40:58.372Z,2.65
2023-02-12T10:43:25.378Z,1.47
2023-02-12T10:45:52.163Z,2.70
2023-02-12T10:48:22.021Z,3.68
2023-02-12T10:51:03.282Z,5.01
2023-02-12T10:53:36.062Z,3.68
2023-02-12T10:56:12.297Z,1.66
2023-02-12T10:59:22.483Z,2.27
2023-02-12T11:01:52.229Z,1.51
2023-02-12T11:07:18.411Z,4.07
2023-02-12T11:09:47.857Z,5.24
2023-02-12T11:12:36.660Z,3.10
2023-02-12T11:15:15.770Z,5.21
2023-02-12T11:18:33.525Z,2.14
2023-02-12T11:21:12.597Z,5.35
2023-02-12T11:23:52.247Z,2.91
2023-02-12T11:26:19.119Z,5.45
2023-02-12T11:29:32.126Z,2.36
2023-02-12T11:32:16.367Z,4.88
2023-02-12T11:35:04.978Z,5.36
2023-02-12T11:37:43.283Z,5.20
2023-02-12T11:40:23.468Z,5.31
2023-02-12T11:43:20.545Z,5.59
2023-02-12T11:46:01.152Z,1.69
2023-02-12T11:48:37.789Z,5.53
2023-02-12T11:51:09.641Z,4.32
2023-02-12T11:53:50.395Z,2.06
2023-02-12T11:56:25.456Z,1.99
2023-02-12T11:59:17.776Z,2.67
2023-02-12T12:01:48.061Z,3.58
2023-02-12T12:04:23.469Z,3.86
2023-02-12T12:06:58.785Z,3.86
2023-02-12T12:09:28.702Z,5.59
2023-02-12T12:12:21.772Z,5.18
2023-02-12T12:14:58.177Z,5.24
2023-02-12T12:17:36.835Z,3.85
2023-02-12T12:20:12.689Z,3.83
2023-02-12T12:23:06.251Z,5.63
2023-02-12T12:25:52.600Z,5.47
2023-02-12T12:28:43.363Z,5.47
2023-02-12T12:31:32.696Z,5.40
2023-02-12T12:34:08.678Z,5.45
2023-02-12T12:36:54.177Z,5.50
2023-02-12T12:39:26.976Z,5.52
2023-02-12T12:42:15.390Z,5.56
2023-02-12T12:45:02.629Z,5.38
2023-02-12T12:48:01.634Z,4.98
2023-02-12T12:50:31.243Z,5.50
2023-02-12T12:53:20.829Z,5.49
2023-02-12T12:55:57.001Z,5.55
2023-02-12T12:58:37.486Z,4.97
2023-02-12T13:01:07.240Z,5.61
2023-02-12T13:03:52.749Z,5.12
2023-02-12T13:06:32.652Z,4.95
2023-02-12T13:09:20.885Z,5.46
2023-02-12T13:12:09.742Z,4.80
2023-02-12T13:14:42.739Z,5.48
2023-02-12T13:17:27.326Z,4.78
2023-02-12T13:20:13.025Z,5.65
2023-02-12T13:23:20.480Z,5.24
2023-02-12T13:26:18.729Z,4.77
2023-02-12T13:28:56.889Z,5.14
2023-02-12T13:31:34.499Z,4.77
2023-02-12T13:34:15.306Z,5.47
2023-02-12T13:36:42.811Z,4.99
2023-02-12T13:39:36.123Z,4.80
2023-02-12T13:42:25.445Z,5.26
2023-02-12T13:45:02.970Z,5.62
2023-02-12T13:47:32.824Z,5.73
2023-02-12T13:50:48.501Z,5.19
2023-02-12T13:53:42.621Z,5.78
2023-02-12T13:56:28.026Z,5.81
2023-02-12T13:58:55.537Z,5.84
2023-02-12T14:01:38.253Z,5.81
2023-02-12T14:04:25.752Z,5.82
2023-02-12T14:07:01.104Z,5.12
2023-02-12T14:09:38.328Z,5.67
2023-02-12T14:12:09.066Z,5.37
2023-02-12T14:14:43.052Z,5.18
2023-02-12T14:17:28.056Z,5.88
2023-02-12T14:20:22.778Z,5.82
2023-02-12T14:22:49.443Z,5.47
2023-02-12T14:25:25.075Z,5.61
2023-02-12T14:28:06.679Z,5.11
2023-02-12T14:30:40.617Z,5.25
2023-02-12T14:33:07.284Z,5.65
2023-02-12T14:35:45.198Z,5.68
2023-02-12T14:38:11.989Z,5.68
2023-02-12T14:40:42.919Z,5.37
2023-02-12T14:43:34.540Z,5.60
2023-02-12T14:46:22.845Z,5.64
2023-02-12T14:49:04.292Z,5.46
2023-02-12T14:51:51.689Z,5.79
2023-02-12T14:54:34.347Z,5.48
2023-02-12T14:57:08.803Z,5.56
2023-02-12T14:59:40.427Z,5.43
2023-02-12T15:02:14.530Z,5.16
2023-02-12T15:04:45.618Z,4.56
2023-02-12T15:07:17.188Z,4.95
2023-02-12T15:09:52.819Z,4.79
2023-02-12T15:12:46.815Z,5.28
2023-02-12T15:15:23.302Z,3.93
2023-02-12T15:18:06.736Z,4.86
2023-02-12T15:21:00.008Z,5.32
2023-02-12T15:24:09.638Z,5.41
2023-02-12T15:26:45.106Z,5.22
2023-02-12T15:29:34.284Z,4.93
2023-02-12T15:32:05.903Z,5.37
2023-02-12T15:34:36.930Z,5.07
2023-02-12T15:37:05.273Z,5.04
2023-02-12T15:39:45.405Z,5.30
2023-02-12T15:42:36.039Z,4.59
2023-02-12T15:45:08.024Z,5.52
2023-02-12T15:47:34.866Z,4.92
2023-02-12T15:50:01.728Z,4.89
2023-02-12T15:52:34.179Z,5.10
2023-02-12T15:55:03.538Z,5.71
2023-02-12T15:57:31.094Z,3.95
2023-02-12T16:00:06.745Z,4.30
2023-02-12T16:02:39.567Z,5.39
2023-02-12T16:05:07.084Z,5.50
2023-02-12T16:07:36.769Z,5.44
2023-02-12T16:10:05.500Z,5.71
2023-02-12T16:12:35.697Z,5.57
2023-02-12T16:15:03.492Z,5.25
2023-02-12T16:17:31.493Z,5.54
2023-02-12T16:20:07.694Z,5.32
2023-02-12T16:22:38.645Z,3.76
2023-02-12T16:25:18.691Z,2.54
2023-02-12T16:27:55.940Z,2.77
2023-02-12T16:30:26.283Z,5.49
2023-02-12T16:32:53.672Z,5.30
2023-02-12T16:35:34.892Z,2.54
2023-02-12T16:38:15.608Z,2.87
2023-02-12T16:41:07.023Z,5.23
2023-02-12T16:43:33.860Z,5.26
2023-02-12T16:46:05.860Z,5.41
2023-02-12T16:48:39.542Z,2.53
2023-02-12T16:51:06.644Z,4.61
2023-02-12T16:53:36.526Z,4.83
2023-02-12T16:56:04.857Z,3.63
2023-02-12T16:58:31.697Z,4.41
2023-02-12T17:01:04.662Z,4.85
2023-02-12T17:03:31.776Z,5.20
2023-02-12T17:05:58.807Z,5.17
2023-02-12T17:08:26.173Z,5.66
2023-02-12T17:10:52.998Z,5.52
2023-02-12T17:13:20.221Z,5.85
2023-02-12T17:15:50.637Z,5.96
2023-02-12T17:18:18.176Z,5.95
2023-02-12T17:20:51.423Z,6.11
2023-02-12T17:23:18.390Z,5.84
2023-02-12T17:25:45.019Z,5.74
2023-02-12T17:28:11.800Z,5.53
2023-02-12T17:30:40.875Z,5.92
2023-02-12T17:33:08.322Z,5.38
2023-02-12T17:38:34.066Z,5.37
2023-02-12T17:41:01.309Z,4.00
2023-02-12T17:43:27.967Z,5.80
2023-02-12T17:45:54.751Z,5.55
2023-02-12T17:48:21.429Z,5.94
2023-02-12T17:50:54.306Z,6.00
2023-02-12T17:53:21.153Z,5.72
2023-02-12T17:55:47.748Z,5.93
2023-02-12T17:58:14.440Z,5.75
2023-02-12T18:00:41.991Z,5.80
2023-02-12T18:03:08.710Z,5.73
2023-02-12T18:05:41.465Z,6.25
2023-02-12T18:08:08.904Z,5.84
2023-02-12T18:10:43.440Z,6.07
2023-02-12T18:13:10.634Z,5.76
2023-02-12T18:15:39.732Z,4.85
2023-02-12T18:18:06.794Z,6.09
2023-02-12T18:20:33.878Z,5.75
2023-02-12T18:23:02.776Z,6.25
2023-02-12T18:25:29.516Z,6.38
2023-02-12T18:27:56.624Z,5.60
2023-02-12T18:30:23.794Z,5.09
2023-02-12T18:32:50.566Z,6.03
2023-02-12T18:35:17.461Z,6.05
2023-02-12T18:37:44.358Z,5.91
2023-02-12T18:40:11.923Z,5.58
2023-02-12T18:42:38.749Z,2.40
2023-02-12T18:45:05.791Z,5.70
2023-02-12T18:47:32.413Z,5.45
2023-02-12T18:50:00.106Z,5.43
2023-02-12T18:52:26.817Z,5.56
2023-02-12T18:54:53.410Z,5.28
2023-02-12T18:57:20.265Z,5.38
2023-02-12T18:59:46.829Z,3.82
2023-02-12T19:02:14.023Z,5.02
2023-02-12T19:04:41.341Z,5.37
2023-02-12T19:07:08.690Z,5.15
2023-02-12T19:09:35.416Z,4.77
2023-02-12T19:12:02.321Z,3.14
2023-02-12T19:14:29.208Z,5.24
2023-02-12T19:16:55.891Z,5.01
2023-02-12T19:19:23.216Z,5.16
2023-02-12T19:21:50.503Z,5.14
2023-02-12T19:24:17.737Z,4.79
2023-02-12T19:26:45.127Z,5.13
2023-02-12T19:29:13.154Z,4.53
2023-02-12T19:31:44.135Z,5.09
2023-02-12T19:34:19.991Z,4.92
2023-02-12T19:36:48.059Z,5.02
2023-02-12T19:39:19.975Z,4.98
2023-02-12T19:41:46.853Z,4.88
2023-02-12T19:44:25.190Z,4.85
2023-02-12T19:46:53.508Z,4.82
2023-02-12T19:49:31.741Z,4.56
2023-02-12T19:52:51.144Z,4.47
2023-02-12T19:55:30.046Z,3.91
2023-02-12T19:57:56.741Z,4.07
2023-02-12T20:00:26.520Z,4.34
2023-02-12T20:02:53.398Z,4.00
2023-02-12T20:05:22.199Z,4.44
2023-02-12T20:07:48.796Z,4.26
2023-02-12T20:10:18.186Z,4.08
2023-02-12T20:12:46.191Z,3.78
2023-02-12T20:15:13.232Z,4.28
2023-02-12T20:17:39.873Z,3.90
2023-02-12T20:20:07.307Z,2.45
2023-02-12T20:22:33.948Z,3.87
2023-02-12T20:25:00.714Z,4.38
2023-02-12T20:27:28.308Z,4.31
2023-02-12T20:29:55.406Z,3.69
2023-02-12T20:32:22.264Z,3.70
2023-02-12T20:34:52.075Z,3.95
2023-02-12T20:37:19.064Z,3.47
2023-02-12T20:39:45.751Z,4.01
2023-02-12T20:42:12.373Z,4.00
2023-02-12T20:44:39.236Z,3.60
2023-02-12T20:47:06.097Z,3.73
2023-02-12T20:49:33.982Z,3.87
2023-02-12T20:52:00.626Z,2.97
2023-02-12T20:54:27.328Z,4.06
2023-02-12T20:56:53.979Z,3.86
2023-02-12T20:59:22.147Z,3.86
2023-02-12T21:01:50.425Z,1.76
2023-02-12T21:04:20.010Z,3.55
2023-02-12T21:06:47.142Z,3.64
2023-02-12T21:09:24.560Z,0.93
2023-02-12T21:12:27.172Z,3.54
2023-02-12T21:15:00.833Z,2.72
2023-02-12T21:17:30.130Z,3.69
2023-02-12T21:20:07.805Z,3.47
2023-02-12T21:22:37.285Z,3.26
2023-02-12T21:25:06.960Z,2.67
2023-02-12T21:27:36.174Z,2.44
2023-02-12T21:30:16.555Z,2.30
2023-02-12T21:32:54.792Z,2.30
2023-02-12T21:35:26.372Z,2.59
2023-02-12T21:39:54.479Z,2.29
2023-02-12T21:42:24.240Z,1.68
2023-02-12T21:44:54.519Z,1.93
2023-02-12T21:47:22.954Z,2.02
2023-02-12T21:50:09.321Z,1.60
2023-02-12T21:52:40.177Z,0.84
2023-02-12T21:55:08.728Z,2.00
2023-02-12T21:57:35.772Z,0.75
2023-02-12T22:00:05.513Z,2.10
2023-02-12T22:02:42.213Z,0.15
2023-02-12T22:05:12.513Z,2.65
2023-02-12T22:10:56.155Z,2.38
2023-02-12T22:13:26.301Z,1.62
2023-02-12T22:15:55.175Z,1.62
2023-02-12T22:18:22.198Z,1.22
2023-02-12T22:21:00.102Z,2.22
2023-02-12T22:23:32.343Z,1.30
2023-02-12T22:26:29.466Z,2.63
2023-02-12T22:29:02.893Z,2.67
2023-02-12T22:31:35.892Z,2.28
2023-02-12T22:34:07.740Z,1.74
2023-02-12T22:36:36.868Z,0.62
2023-02-12T22:39:04.693Z,2.88
2023-02-12T22:41:31.679Z,2.83
2023-02-12T22:44:00.045Z,3.03
2023-02-12T22:46:27.544Z,3.20
2023-02-12T22:48:54.586Z,2.22
2023-02-12T22:51:27.846Z,2.31
2023-02-12T22:53:55.633Z,1.54
2023-02-12T22:56:24.138Z,1.66
2023-02-12T22:59:00.177Z,3.51
2023-02-12T23:01:28.373Z,3.33
2023-02-12T23:03:55.594Z,3.15
2023-02-12T23:06:25.049Z,3.62
2023-02-12T23:08:54.137Z,3.06
2023-02-12T23:11:22.009Z,3.22
2023-02-12T23:13:48.648Z,3.11
2023-02-12T23:16:15.448Z,2.69
2023-02-12T23:18:42.489Z,1.74
2023-02-12T23:21:09.429Z,1.14
2023-02-12T23:23:36.035Z,2.62
2023-02-12T23:26:03.282Z,2.73
2023-02-12T23:28:31.328Z,1.87
2023-02-12T23:30:59.111Z,2.38
2023-02-12T23:33:25.977Z,3.17
2023-02-12T23:35:52.839Z,2.96
2023-02-12T23:38:19.418Z,3.10
2023-02-12T23:40:47.626Z,2.65
2023-02-12T23:43:14.536Z,3.07
2023-02-12T23:45:43.603Z,2.89
2023-02-12T23:48:10.615Z,1.54
2023-02-12T23:50:37.471Z,2.30
2023-02-12T23:53:04.258Z,2.84
2023-02-12T23:55:30.940Z,3.07
2023-02-12T23:57:58.220Z,2.85
